Time;durP1;ratioP1;P1;durP2;ratioP2;P2;SDS_P1;SDS_P2;PMS_P1;PMS_P2;Temp;Humidity;BMP_temperature;BMP_pressure;BME280_temperature;BME280_humidity;BME280_pressure;Samples;Min_cycle;Max_cycle;Signal;HPM_P1;HPM_P2
2022/06/01 00:01:58;;;;;;;4.05;2.30;;;;;;;11.32;66.53;99356.06;5050090;28;20033;-65
2022/06/01 00:04:23;;;;;;;3.10;2.13;;;;;;;11.30;66.66;99358.81;5050155;28;20500;-65
2022/06/01 00:06:48;;;;;;;4.20;1.92;;;;;;;11.32;66.61;99358.72;5049856;28;20029;-65
2022/06/01 00:09:14;;;;;;;3.22;2.38;;;;;;;11.30;66.71;99350.06;5050359;28;20041;-65
2022/06/01 00:11:39;;;;;;;2.72;2.03;;;;;;;11.32;66.61;99353.44;5050149;28;20032;-64
2022/06/01 00:14:05;;;;;;;3.45;2.20;;;;;;;11.31;66.53;99352.59;5050100;28;20029;-65
2022/06/01 00:16:31;;;;;;;3.08;2.00;;;;;;;11.30;66.73;99353.56;5048879;28;20523;-66
2022/06/01 00:18:57;;;;;;;2.53;2.20;;;;;;;11.32;66.59;99356.94;5049806;28;20040;-66
2022/06/01 00:21:23;;;;;;;3.42;2.08;;;;;;;11.33;66.82;99363.91;5049958;28;20063;-65
2022/06/01 00:23:49;;;;;;;6.97;2.47;;;;;;;11.32;66.53;99359.59;5050502;28;20056;-65
2022/06/01 00:26:14;;;;;;;6.72;3.00;;;;;;;11.30;66.28;99358.81;5036020;28;20056;-63
2022/06/01 00:28:39;;;;;;;7.25;2.78;;;;;;;11.28;66.50;99365.97;5029810;28;20035;-66
2022/06/01 00:31:05;;;;;;;3.03;2.13;;;;;;;11.27;67.01;99366.94;5029620;28;20108;-66
2022/06/01 00:33:30;;;;;;;3.53;1.70;;;;;;;11.27;66.61;99366.94;5045012;28;20064;-64
2022/06/01 00:35:56;;;;;;;4.35;1.92;;;;;;;11.27;66.53;99364.28;5049103;28;20067;-67
2022/06/01 00:38:21;;;;;;;8.32;3.22;;;;;;;11.25;66.68;99352.09;5049125;28;20485;-67
2022/06/01 00:40:48;;;;;;;3.55;2.22;;;;;;;11.20;66.64;99352.41;5049304;28;20471;-65
2022/06/01 00:43:37;;;;;;;3.33;2.20;;;;;;;11.17;66.55;99353.44;5049107;28;20532;-65
2022/06/01 00:46:03;;;;;;;3.58;2.08;;;;;;;11.13;66.62;99365.09;5048594;28;20087;-64
2022/06/01 00:48:31;;;;;;;3.40;2.13;;;;;;;11.13;66.77;99356.34;5049300;28;20037;-67
2022/06/01 00:50:56;;;;;;;4.20;2.20;;;;;;;11.11;66.81;99360.84;5049040;28;20029;-66
2022/06/01 00:53:27;;;;;;;2.40;1.80;;;;;;;11.13;66.61;99362.44;5049288;28;20115;-65
2022/06/01 00:56:00;;;;;;;3.10;1.80;;;;;;;11.14;66.67;99365.94;5048924;28;20475;-65
2022/06/01 00:58:30;;;;;;;5.13;2.60;;;;;;;11.13;66.64;99365.09;5048932;28;20619;-65
2022/06/01 01:00:57;;;;;;;4.95;2.67;;;;;;;11.12;66.91;99366.03;5043202;28;20404;-66
2022/06/01 01:03:25;;;;;;;3.63;2.28;;;;;;;11.09;67.09;99370.63;5049044;28;20119;-66
2022/06/01 01:06:05;;;;;;;5.38;2.00;;;;;;;11.09;67.29;99368.00;5048572;28;20108;-66
2022/06/01 01:08:31;;;;;;;3.00;2.00;;;;;;;11.04;67.46;99365.63;5049225;28;20103;-66
2022/06/01 01:10:56;;;;;;;3.22;2.38;;;;;;;10.99;67.54;99367.66;5049124;28;20025;-65
2022/06/01 01:13:23;;;;;;;3.47;1.90;;;;;;;10.98;67.61;99367.75;5048961;28;20037;-65
2022/06/01 01:15:55;;;;;;;4.57;2.90;;;;;;;10.95;67.54;99364.38;5048877;28;20116;-67
2022/06/01 01:18:28;;;;;;;2.78;1.90;;;;;;;10.94;67.54;99365.28;5048967;28;20044;-66
2022/06/01 01:21:13;;;;;;;3.83;1.92;;;;;;;10.90;67.81;99361.16;5049042;28;20053;-65
2022/06/01 01:23:49;;;;;;;3.60;2.50;;;;;;;10.86;68.05;99364.91;5049207;28;20646;-66
2022/06/01 01:26:17;;;;;;;2.90;2.10;;;;;;;10.82;68.26;99360.72;5048219;28;20091;-65
2022/06/01 01:28:43;;;;;;;3.67;2.22;;;;;;;10.80;68.01;99354.69;5049120;28;20037;-65
2022/06/01 01:31:17;;;;;;;3.22;1.80;;;;;;;10.72;68.31;99356.91;5052474;28;20029;-64
2022/06/01 01:33:44;;;;;;;3.47;2.42;;;;;;;10.68;68.40;99356.25;5048943;28;20037;-64
2022/06/01 01:36:11;;;;;;;3.53;2.40;;;;;;;10.68;68.65;99358.00;5048795;28;20040;-65
2022/06/01 01:39:07;;;;;;;5.38;2.85;;;;;;;10.65;68.19;99351.13;5048581;28;20033;-64
2022/06/01 01:41:56;;;;;;;6.05;3.03;;;;;;;10.65;68.24;99353.78;5048839;28;20095;-65
2022/06/01 01:44:32;;;;;;;3.00;2.22;;;;;;;10.60;68.64;99342.63;5048417;28;20500;-66
2022/06/01 01:46:58;;;;;;;4.20;2.33;;;;;;;10.59;68.79;99346.22;5030520;28;20029;-66
2022/06/01 01:49:30;;;;;;;4.50;2.55;;;;;;;10.58;68.55;99346.28;5048687;28;20443;-66
2022/06/01 01:52:00;;;;;;;4.88;2.47;;;;;;;10.57;68.61;99350.72;5049144;28;20036;-65
2022/06/01 01:54:43;;;;;;;4.38;2.60;;;;;;;10.55;68.57;99346.47;5052881;28;20047;-66
2022/06/01 01:57:46;;;;;;;4.10;2.55;;;;;;;10.48;69.39;99349.47;5052323;28;20528;-65
2022/06/01 02:00:24;;;;;;;5.80;2.80;;;;;;;10.45;68.80;99360.16;5052330;28;20043;-66
2022/06/01 02:03:02;;;;;;;3.40;2.70;;;;;;;10.40;69.33;99350.81;5052537;28;20029;-65
2022/06/01 02:08:30;;;;;;;5.28;3.55;;;;;;;10.36;69.43;99362.44;5051944;28;20087;-66
2022/06/01 02:14:05;;;;;;;4.32;2.38;;;;;;;10.36;69.36;99354.53;5052154;28;20503;-66
2022/06/01 02:16:38;;;;;;;5.68;2.42;;;;;;;10.32;69.42;99361.78;5039030;28;20053;-66
2022/06/01 02:19:08;;;;;;;3.10;2.50;;;;;;;10.31;69.64;99365.34;5042631;28;20060;-64
2022/06/01 02:21:34;;;;;;;4.75;2.30;;;;;;;10.30;69.51;99361.84;5035975;28;20481;-64
2022/06/01 02:24:00;;;;;;;3.38;2.58;;;;;;;10.28;69.79;99374.25;5032387;28;20048;-66
2022/06/01 02:26:26;;;;;;;4.70;2.47;;;;;;;10.34;69.55;99370.47;5031428;28;20038;-66
2022/06/01 02:29:01;;;;;;;4.88;2.50;;;;;;;10.36;69.32;99371.22;5031770;28;20033;-66
2022/06/01 02:31:28;;;;;;;3.75;2.78;;;;;;;10.37;69.37;99369.44;5041539;28;20037;-66
2022/06/01 02:33:55;;;;;;;3.80;2.78;;;;;;;10.38;69.07;99368.50;5045378;28;20029;-65
2022/06/01 02:36:23;;;;;;;6.38;2.50;;;;;;;10.34;69.15;99367.81;5031004;28;20479;-66
2022/06/01 02:38:51;;;;;;;5.78;2.63;;;;;;;10.30;69.82;99363.66;5031769;28;20025;-66
2022/06/01 02:44:01;;;;;;;7.15;2.90;;;;;;;10.26;69.69;99362.06;5031745;28;20409;-65
2022/06/01 02:46:27;;;;;;;6.22;3.28;;;;;;;10.22;69.35;99363.19;5031200;28;20120;-65
2022/06/01 02:48:53;;;;;;;3.50;2.22;;;;;;;10.23;69.52;99373.63;5031445;28;20434;-65
2022/06/01 02:51:19;;;;;;;5.90;2.92;;;;;;;10.24;69.49;99374.50;5031795;28;20034;-65
2022/06/01 02:53:46;;;;;;;8.48;2.42;;;;;;;10.20;69.79;99371.16;5031524;28;20030;-66
2022/06/01 02:56:12;;;;;;;4.30;2.60;;;;;;;10.20;69.54;99375.59;5031426;28;20038;-65
2022/06/01 02:58:38;;;;;;;4.38;2.88;;;;;;;10.16;69.56;99379.31;5031685;28;20030;-65
2022/06/01 03:01:03;;;;;;;4.35;3.05;;;;;;;10.08;69.93;99379.72;5031332;28;20052;-64
2022/06/01 03:03:30;;;;;;;4.13;3.17;;;;;;;10.04;70.05;99383.44;5030770;28;20382;-64
2022/06/01 03:05:55;;;;;;;6.47;3.13;;;;;;;10.05;70.03;99375.47;5012723;28;20032;-65
2022/06/01 03:08:20;;;;;;;8.70;3.10;;;;;;;9.99;69.91;99381.09;5031263;28;20033;-65
2022/06/01 03:10:47;;;;;;;4.03;2.90;;;;;;;9.95;70.05;99387.44;5031457;28;20094;-64
2022/06/01 03:13:12;;;;;;;5.22;2.97;;;;;;;9.95;70.12;99389.22;5031278;28;20409;-65
2022/06/01 03:15:37;;;;;;;9.15;3.20;;;;;;;9.94;70.06;99393.63;5031567;28;20035;-64
2022/06/01 03:18:03;;;;;;;5.35;3.38;;;;;;;9.93;69.83;99389.31;5030777;28;20041;-64
2022/06/01 03:20:29;;;;;;;6.85;2.63;;;;;;;9.93;70.02;99393.72;5031407;28;20036;-63
2022/06/01 03:22:55;;;;;;;5.95;2.70;;;;;;;9.94;69.74;99398.03;5031135;28;20030;-64
2022/06/01 03:25:22;;;;;;;7.35;4.43;;;;;;;9.88;70.13;99404.50;5030969;28;20082;-62
2022/06/01 03:27:49;;;;;;;5.63;3.85;;;;;;;9.85;69.89;99402.88;5030581;28;20495;-65
2022/06/01 03:30:16;;;;;;;4.68;2.72;;;;;;;9.81;70.28;99400.47;5030781;28;20426;-65
2022/06/01 03:32:43;;;;;;;5.50;2.90;;;;;;;9.77;70.23;99404.19;5031431;28;20029;-63
2022/06/01 03:35:09;;;;;;;4.25;2.72;;;;;;;9.76;70.86;99403.34;5037764;28;20033;-64
2022/06/01 03:37:34;;;;;;;3.58;2.78;;;;;;;9.75;70.55;99404.28;5049812;28;20040;-63
2022/06/01 03:40:00;;;;;;;4.72;3.10;;;;;;;9.72;70.46;99403.59;5050376;28;20033;-64
2022/06/01 03:42:25;;;;;;;4.68;3.17;;;;;;;9.69;71.10;99404.59;5050860;28;20422;-63
2022/06/01 03:47:35;;;;;;;3.83;3.03;;;;;;;9.63;70.68;99405.78;5049934;28;20040;-65
2022/06/01 03:50:01;;;;;;;6.50;2.88;;;;;;;9.58;71.39;99407.78;5050487;28;20029;-65
2022/06/01 03:52:27;;;;;;;4.28;2.78;;;;;;;9.53;71.19;99417.69;5050451;28;20553;-64
2022/06/01 03:54:52;;;;;;;3.22;2.60;;;;;;;9.48;71.64;99417.09;5050368;28;20036;-64
2022/06/01 03:57:18;;;;;;;7.18;3.20;;;;;;;9.46;71.57;99416.31;5050254;28;20400;-66
2022/06/01 03:59:43;;;;;;;6.78;5.07;;;;;;;9.40;72.13;99408.72;5050462;28;20025;-66
2022/06/01 04:02:08;;;;;;;6.72;3.00;;;;;;;9.36;72.70;99415.06;5050824;28;20463;-65
2022/06/01 04:04:34;;;;;;;5.10;3.42;;;;;;;9.37;72.16;99428.13;5050585;28;20086;-65
2022/06/01 04:07:00;;;;;;;8.05;3.40;;;;;;;9.42;71.76;99433.16;5049525;28;20094;-64
2022/06/01 04:09:25;;;;;;;6.20;2.75;;;;;;;9.45;71.72;99425.09;5050586;28;20037;-66
2022/06/01 04:11:52;;;;;;;3.95;2.85;;;;;;;9.49;72.29;99429.31;5050415;28;20059;-65
2022/06/01 04:14:20;;;;;;;6.57;3.78;;;;;;;9.52;71.41;99428.28;5049679;28;20033;-65
2022/06/01 04:16:47;;;;;;;4.60;3.38;;;;;;;9.59;72.14;99432.31;5049174;28;20048;-65
2022/06/01 04:19:13;;;;;;;4.25;2.92;;;;;;;9.65;71.36;99434.66;5050562;28;20036;-63
2022/06/01 04:21:40;;;;;;;5.75;3.35;;;;;;;9.73;71.45;99426.38;5051153;28;20033;-65
2022/06/01 04:24:11;;;;;;;5.10;2.97;;;;;;;9.78;71.10;99430.44;5050230;28;20049;-63
2022/06/01 04:26:36;;;;;;;5.45;3.05;;;;;;;9.80;71.23;99418.06;5049424;28;20053;-65
2022/06/01 04:29:02;;;;;;;6.68;3.08;;;;;;;9.82;70.72;99425.88;5049903;28;20520;-65
2022/06/01 04:31:27;;;;;;;7.38;3.40;;;;;;;9.83;70.84;99423.16;5049790;28;20508;-65
2022/06/01 04:33:53;;;;;;;6.63;3.25;;;;;;;9.86;70.89;99427.41;5049713;28;20033;-65
2022/06/01 04:36:18;;;;;;;6.03;3.35;;;;;;;9.89;70.36;99429.88;5034281;28;20045;-65
2022/06/01 04:38:44;;;;;;;6.03;3.03;;;;;;;9.91;70.52;99427.19;5037585;28;20029;-63
2022/06/01 04:41:09;;;;;;;4.68;3.00;;;;;;;9.94;70.46;99424.38;5050883;28;20052;-64
2022/06/01 04:43:34;;;;;;;4.20;3.15;;;;;;;10.00;70.33;99430.19;5049879;28;20411;-65
2022/06/01 04:46:00;;;;;;;5.03;3.65;;;;;;;10.06;69.87;99423.72;5049148;28;20048;-66
2022/06/01 04:48:25;;;;;;;10.40;3.97;;;;;;;10.10;69.79;99428.75;5049210;28;20463;-65
2022/06/01 04:50:52;;;;;;;4.78;2.85;;;;;;;10.13;69.67;99430.38;5049766;28;20037;-66
2022/06/01 04:53:18;;;;;;;5.43;3.40;;;;;;;10.16;69.38;99434.63;5049649;28;20119;-65
2022/06/01 04:55:45;;;;;;;6.38;3.10;;;;;;;10.22;69.36;99434.31;5049712;28;20043;-64
2022/06/01 04:58:11;;;;;;;8.65;3.50;;;;;;;10.28;69.13;99428.75;5049877;28;20067;-63
2022/06/01 05:00:38;;;;;;;8.88;3.22;;;;;;;10.34;68.88;99430.19;5049463;28;20052;-66
2022/06/01 05:03:04;;;;;;;12.25;3.90;;;;;;;10.43;68.31;99420.00;5049628;28;20489;-65
2022/06/01 05:05:30;;;;;;;10.52;4.53;;;;;;;10.55;68.54;99423.75;5049250;28;20103;-65
2022/06/01 05:07:55;;;;;;;5.32;3.03;;;;;;;10.64;67.66;99425.91;5048952;28;20033;-65
2022/06/01 05:10:22;;;;;;;5.18;3.33;;;;;;;10.73;67.85;99421.88;5049632;28;20060;-66
2022/06/01 05:12:47;;;;;;;4.15;2.67;;;;;;;10.79;67.29;99420.72;5049771;28;20457;-65
2022/06/01 05:15:13;;;;;;;6.38;2.90;;;;;;;10.84;67.34;99427.41;5050200;28;20093;-64
2022/06/01 05:17:38;;;;;;;4.82;3.25;;;;;;;10.85;66.87;99426.47;5049242;28;20037;-63
2022/06/01 05:20:05;;;;;;;5.60;3.28;;;;;;;10.88;66.65;99430.75;5050353;28;20040;-64
2022/06/01 05:22:30;;;;;;;4.13;2.63;;;;;;;10.94;66.53;99425.13;5050747;28;20382;-64
2022/06/01 05:24:56;;;;;;;6.25;3.40;;;;;;;11.03;66.28;99431.66;5050367;28;20036;-64
2022/06/01 05:27:21;;;;;;;6.68;3.45;;;;;;;11.04;65.83;99428.94;5050416;28;20488;-63
2022/06/01 05:29:47;;;;;;;9.02;3.20;;;;;;;11.09;66.09;99431.31;5053666;28;20029;-65
2022/06/01 05:32:12;;;;;;;5.72;2.97;;;;;;;11.19;65.70;99424.56;5053855;28;20113;-64
2022/06/01 05:34:38;;;;;;;9.13;3.30;;;;;;;11.49;65.00;99419.28;5053871;28;20397;-65
2022/06/01 05:37:03;;;;;;;9.07;3.13;;;;;;;11.79;64.00;99423.69;5052724;28;20167;-66
2022/06/01 05:39:29;;;;;;;7.22;2.97;;;;;;;12.09;63.06;99423.66;5053089;28;20036;-65
2022/06/01 05:41:54;;;;;;;4.97;3.40;;;;;;;12.33;62.22;99418.66;5035077;28;20037;-66
2022/06/01 05:44:20;;;;;;;6.88;3.17;;;;;;;12.34;62.18;99422.97;5053017;28;20039;-65
2022/06/01 05:46:45;;;;;;;5.30;3.35;;;;;;;12.21;62.21;99427.34;5051926;28;20041;-65
2022/06/01 05:49:13;;;;;;;5.20;3.05;;;;;;;12.15;62.94;99425.06;5053484;28;20037;-65
2022/06/01 05:51:38;;;;;;;4.75;3.15;;;;;;;12.14;62.53;99429.50;5053349;28;20497;-64
2022/06/01 05:54:04;;;;;;;9.18;3.28;;;;;;;12.15;63.05;99425.06;5053204;28;20029;-65
2022/06/01 05:56:29;;;;;;;8.90;3.55;;;;;;;12.14;62.96;99428.66;5052045;28;20029;-64
2022/06/01 05:58:55;;;;;;;5.40;2.97;;;;;;;12.12;63.03;99426.09;5052669;28;20025;-65
2022/06/01 06:01:22;;;;;;;7.32;3.13;;;;;;;12.13;63.06;99426.94;5052877;28;20041;-64
2022/06/01 06:03:48;;;;;;;6.40;3.78;;;;;;;12.19;63.44;99422.16;5052633;28;20040;-66
2022/06/01 06:06:16;;;;;;;8.27;4.18;;;;;;;12.29;62.94;99424.22;5052031;28;20527;-64
2022/06/01 06:08:46;;;;;;;6.88;4.13;;;;;;;12.32;63.34;99426.66;5035972;28;20116;-66
2022/06/01 06:11:13;;;;;;;10.55;3.60;;;;;;;12.36;63.13;99426.38;5052761;28;20470;-66
2022/06/01 06:13:38;;;;;;;8.63;3.67;;;;;;;12.34;63.79;99428.28;5052670;28;20480;-66
2022/06/01 06:16:04;;;;;;;6.57;3.33;;;;;;;12.38;62.78;99435.09;5051675;28;20087;-67
2022/06/01 06:18:30;;;;;;;9.15;4.32;;;;;;;12.50;62.18;99435.25;5052275;28;20029;-65
2022/06/01 06:20:56;;;;;;;8.30;4.15;;;;;;;12.63;62.24;99431.72;5052329;28;20021;-66
2022/06/01 06:23:22;;;;;;;8.52;4.15;;;;;;;12.81;62.03;99440.28;5034619;28;20040;-65
2022/06/01 06:25:47;;;;;;;8.38;3.90;;;;;;;12.94;62.27;99443.00;5052545;28;20443;-66
2022/06/01 06:28:13;;;;;;;8.18;4.35;;;;;;;13.02;62.15;99438.06;5051390;28;20041;-66
2022/06/01 06:30:39;;;;;;;14.40;4.78;;;;;;;13.11;62.06;99428.66;5046555;28;20080;-66
2022/06/01 06:33:05;;;;;;;6.20;3.72;;;;;;;13.17;61.59;99440.63;5032230;28;20182;-65
2022/06/01 06:35:31;;;;;;;7.03;4.22;;;;;;;13.27;61.37;99441.78;5032354;28;20091;-64
2022/06/01 06:37:57;;;;;;;7.72;3.65;;;;;;;13.26;60.87;99443.53;5030868;28;20092;-66
2022/06/01 06:40:22;;;;;;;5.43;3.53;;;;;;;13.30;62.08;99452.16;5031974;28;20045;-66
2022/06/01 06:42:48;;;;;;;7.05;3.58;;;;;;;13.37;61.70;99457.91;5031968;28;20033;-66
2022/06/01 06:45:13;;;;;;;9.23;3.75;;;;;;;13.41;61.18;99457.59;5032460;28;20034;-67
2022/06/01 06:47:42;;;;;;;9.48;5.00;;;;;;;13.44;60.47;99453.91;5031348;28;20080;-64
2022/06/01 06:50:10;;;;;;;5.35;3.45;;;;;;;13.49;61.15;99449.16;5032557;28;20034;-65
2022/06/01 06:52:36;;;;;;;9.32;3.75;;;;;;;13.47;60.95;99451.91;5015595;28;20083;-66
2022/06/01 06:55:01;;;;;;;5.63;3.58;;;;;;;13.50;61.01;99453.50;5032631;28;20037;-66
2022/06/01 06:57:27;;;;;;;5.05;3.42;;;;;;;13.54;60.88;99452.34;5031019;28;20046;-66
2022/06/01 06:59:52;;;;;;;6.22;3.20;;;;;;;13.51;61.35;99450.75;5031619;28;20032;-67
2022/06/01 07:02:18;;;;;;;7.78;4.07;;;;;;;13.53;60.78;99450.63;5031643;28;20480;-66
2022/06/01 07:04:44;;;;;;;5.75;4.07;;;;;;;13.61;60.81;99458.94;5030436;28;20103;-68
2022/06/01 07:07:09;;;;;;;6.85;3.72;;;;;;;13.69;60.54;99458.41;5030206;28;20084;-64
2022/06/01 07:09:35;;;;;;;8.27;3.15;;;;;;;13.76;60.56;99459.69;5030228;28;20045;-65
2022/06/01 07:12:00;;;;;;;8.73;3.53;;;;;;;13.80;60.58;99455.88;5030038;28;20103;-65
2022/06/01 07:14:25;;;;;;;8.35;3.50;;;;;;;14.00;60.32;99461.63;5030131;28;20057;-66
2022/06/01 07:16:51;;;;;;;6.43;3.78;;;;;;;14.17;59.24;99462.13;5029049;28;20120;-65
2022/06/01 07:19:16;;;;;;;3.80;2.78;;;;;;;14.27;59.07;99461.50;5030444;28;20045;-65
2022/06/01 07:21:42;;;;;;;5.55;2.85;;;;;;;14.42;59.96;99455.13;5012840;28;20037;-55
2022/06/01 07:24:08;;;;;;;8.57;3.00;;;;;;;14.73;58.86;99453.00;5030751;28;20045;-56
2022/06/01 07:26:37;;;;;;;10.85;3.25;;;;;;;14.96;57.91;99460.16;5030530;28;20045;-53
2022/06/01 07:29:03;;;;;;;6.60;3.17;;;;;;;15.23;56.40;99462.59;5031477;28;20123;-55
2022/06/01 07:31:29;;;;;;;5.20;3.78;;;;;;;15.66;55.35;99463.84;5030783;28;20045;-54
2022/06/01 07:33:56;;;;;;;8.40;3.15;;;;;;;15.81;54.53;99460.06;5030729;28;20029;-56
2022/06/01 07:36:21;;;;;;;5.13;2.55;;;;;;;16.07;53.32;99466.03;5044499;28;20039;-56
2022/06/01 07:44:34;;;;;;;9.70;3.93;;;;;;;16.36;51.62;99470.91;5011032;28;20091;-51
2022/06/01 07:47:00;;;;;;;5.75;2.05;;;;;;;16.36;51.29;99468.22;5027725;28;20535;-57
2022/06/01 07:49:26;;;;;;;4.30;2.63;;;;;;;16.70;51.20;99458.44;5026915;28;20433;-57
2022/06/01 07:51:53;;;;;;;3.95;2.38;;;;;;;16.84;50.53;99461.84;5022996;28;20080;-57
2022/06/01 07:54:19;;;;;;;8.10;3.03;;;;;;;16.78;50.70;99463.16;5024136;28;20124;-57
2022/06/01 07:56:45;;;;;;;4.38;2.50;;;;;;;16.89;50.87;99471.16;5023585;28;20257;-58
2022/06/01 07:59:11;;;;;;;5.95;2.60;;;;;;;16.90;50.34;99466.66;5024367;28;20537;-67
2022/06/01 08:01:37;;;;;;;8.77;2.88;;;;;;;16.64;50.44;99466.91;5024377;28;20406;-66
2022/06/01 08:04:04;;;;;;;7.57;2.42;;;;;;;16.48;49.60;99467.28;5023862;28;20097;-64
2022/06/01 08:06:30;;;;;;;3.92;2.90;;;;;;;16.38;49.62;99470.78;5023808;28;20045;-64
2022/06/01 08:08:56;;;;;;;7.95;4.18;;;;;;;16.31;50.27;99470.41;5030491;28;20040;-66
2022/06/01 08:13:06;;;;;;;4.00;2.17;;;;;;;16.61;50.19;99469.81;5045107;28;20559;-65
2022/06/01 08:14:11;;;;;;;4.13;2.70;;;;;;;16.75;49.51;99472.22;5043535;28;20029;-66
2022/06/01 08:16:38;;;;;;;9.00;2.33;;;;;;;16.84;48.81;99476.00;5025078;28;20461;-65
2022/06/01 08:19:04;;;;;;;4.75;2.78;;;;;;;16.72;48.72;99471.63;5043585;28;20055;-65
2022/06/01 08:21:30;;;;;;;5.55;2.33;;;;;;;16.59;48.76;99473.56;5044084;28;20044;-67
2022/06/01 08:23:55;;;;;;;5.50;2.28;;;;;;;16.36;49.83;99478.88;5043842;28;20600;-67
2022/06/01 08:26:20;;;;;;;6.03;2.88;;;;;;;16.20;49.70;99494.34;5042321;28;20638;-67
2022/06/01 08:28:46;;;;;;;8.07;2.30;;;;;;;16.40;49.51;99479.50;5029781;28;20561;-66
2022/06/01 08:31:11;;;;;;;11.07;2.53;;;;;;;16.60;49.81;99481.44;5021903;28;21072;-64
2022/06/01 08:33:37;;;;;;;6.20;2.30;;;;;;;16.61;50.33;99479.59;5021768;28;20042;-64
2022/06/01 08:36:02;;;;;;;5.35;2.05;;;;;;;16.50;49.87;99483.13;5021925;28;20048;-65
2022/06/01 08:38:28;;;;;;;4.50;2.08;;;;;;;16.60;50.27;99484.09;5023262;28;20530;-65
2022/06/01 08:41:07;;;;;;;5.03;2.75;;;;;;;16.77;49.53;99485.41;5023040;28;20044;-64
2022/06/01 08:43:57;;;;;;;8.05;2.63;;;;;;;16.78;50.09;99483.59;5038755;28;20051;-65
2022/06/01 08:46:24;;;;;;;7.07;2.70;;;;;;;16.66;50.32;99480.09;5034628;28;20041;-66
2022/06/01 08:49:09;;;;;;;9.07;2.65;;;;;;;16.56;50.18;99484.44;5043558;28;20056;-65
2022/06/01 08:51:35;;;;;;;6.88;2.22;;;;;;;16.50;50.50;99477.81;5043393;28;20036;-66
2022/06/01 08:54:00;;;;;;;6.05;2.45;;;;;;;16.35;50.32;99479.84;5043196;28;20155;-66
2022/06/01 08:56:36;;;;;;;3.40;2.30;;;;;;;16.57;49.88;99475.50;5042766;28;20044;-66
2022/06/01 08:59:06;;;;;;;4.03;2.55;;;;;;;16.88;49.37;99485.44;5043139;28;20048;-65
2022/06/01 09:01:42;;;;;;;8.45;2.88;;;;;;;17.03;48.73;99478.03;5042668;28;20550;-66
2022/06/01 09:04:34;;;;;;;5.72;2.33;;;;;;;17.13;47.01;99486.09;5042696;28;20128;-65
2022/06/01 09:07:15;;;;;;;7.50;2.22;;;;;;;17.71;45.02;99486.63;5039592;28;20068;-65
2022/06/01 09:10:20;;;;;;;7.13;2.30;;;;;;;18.66;42.67;99491.88;5043495;28;20106;-64
2022/06/01 09:12:49;;;;;;;8.05;3.00;;;;;;;19.33;41.51;99478.84;5043195;28;20120;-65
2022/06/01 09:15:21;;;;;;;3.95;1.95;;;;;;;19.29;41.75;99480.94;5043445;28;20059;-65
2022/06/01 09:17:46;;;;;;;2.90;2.00;;;;;;;19.29;41.41;99483.63;5041979;28;20497;-65
2022/06/01 09:23:02;;;;;;;6.97;2.90;;;;;;;19.60;40.71;99480.84;5042891;28;20539;-66
2022/06/01 09:25:35;;;;;;;7.88;2.97;;;;;;;20.62;38.72;99474.91;5043119;28;20057;-66
2022/06/01 09:28:16;;;;;;;6.45;2.67;;;;;;;21.13;37.95;99481.53;5042321;28;20041;-66
2022/06/01 09:30:45;;;;;;;6.25;2.53;;;;;;;20.70;38.50;99483.06;5043236;28;20091;-65
2022/06/01 09:33:33;;;;;;;5.80;2.13;;;;;;;19.83;39.28;99483.25;5045738;28;20056;-62
2022/06/01 09:36:03;;;;;;;3.70;2.47;;;;;;;19.91;40.15;99494.94;5042378;28;20396;-65
2022/06/01 09:38:53;;;;;;;6.95;2.70;;;;;;;20.82;37.57;99481.00;5041453;28;20037;-66
2022/06/01 09:41:24;;;;;;;5.72;1.85;;;;;;;20.48;38.58;99483.41;5042674;28;20091;-66
2022/06/01 09:44:02;;;;;;;4.38;2.30;;;;;;;19.98;39.94;99484.47;5042954;28;20183;-65
2022/06/01 09:46:33;;;;;;;13.80;2.88;;;;;;;19.37;41.21;99484.75;5042375;28;20297;-65
2022/06/01 09:49:01;;;;;;;4.25;2.25;;;;;;;18.93;42.13;99482.44;5042941;28;20037;-67
2022/06/01 09:51:27;;;;;;;5.38;2.00;;;;;;;18.62;42.35;99493.09;5043099;28;21003;-65
2022/06/01 09:54:08;;;;;;;7.00;2.97;;;;;;;19.22;41.67;99481.63;5042940;28;20040;-65
2022/06/01 09:56:44;;;;;;;6.85;2.90;;;;;;;18.76;42.35;99483.94;5042193;28;20153;-66
2022/06/01 10:08:15;;;;;;;5.57;2.95;;;;;;;18.27;44.01;99495.34;5043467;28;20414;-66
2022/06/01 10:10:55;;;;;;;11.23;3.45;;;;;;;17.92;43.95;99501.84;5044507;28;20037;-65
2022/06/01 10:13:53;;;;;;;5.15;2.83;;;;;;;18.27;42.77;99501.50;5044606;28;20061;-63
2022/06/01 10:17:00;;;;;;;3.83;2.05;;;;;;;19.19;39.26;99503.31;5044617;28;20508;-65
2022/06/01 10:19:37;;;;;;;12.27;2.45;;;;;;;19.29;39.53;99496.13;5023015;28;20556;-64
2022/06/01 10:22:09;;;;;;;6.00;2.20;;;;;;;18.98;39.94;99490.88;5046375;28;20580;-66
2022/06/01 10:24:43;;;;;;;7.95;2.70;;;;;;;19.78;38.85;99491.69;5041236;28;20037;-66
2022/06/01 10:27:10;;;;;;;6.90;2.33;;;;;;;20.98;36.09;99491.09;5038425;28;20040;-65
2022/06/01 10:29:44;;;;;;;4.03;2.72;;;;;;;20.67;37.03;99493.19;5048237;28;20043;-66
2022/06/01 10:32:17;;;;;;;4.70;2.00;;;;;;;20.61;36.53;99497.31;5045855;28;20040;-66
2022/06/01 10:34:48;;;;;;;6.55;2.75;;;;;;;19.65;38.47;99505.31;5045515;28;20397;-64
2022/06/01 10:37:51;;;;;;;5.53;2.40;;;;;;;19.17;39.64;99506.09;5047152;28;20543;-67
2022/06/01 10:40:26;;;;;;;9.70;2.63;;;;;;;18.71;40.63;99501.31;5047540;28;20166;-61
2022/06/01 10:45:47;;;;;;;3.08;2.67;;;;;;;19.90;38.70;99503.09;5047892;28;20278;-66
2022/06/01 10:48:27;;;;;;;9.05;3.17;;;;;;;21.11;37.06;99496.94;5045872;28;20508;-65
2022/06/01 10:51:08;;;;;;;4.18;2.60;;;;;;;20.45;37.96;99489.03;5045861;28;20045;-66
2022/06/01 10:53:59;;;;;;;5.82;2.67;;;;;;;20.27;38.53;99492.47;5045891;28;20164;-67
2022/06/01 10:56:26;;;;;;;4.55;2.28;;;;;;;19.73;39.20;99492.13;5044679;28;20150;-65
2022/06/01 10:58:58;;;;;;;8.23;2.72;;;;;;;19.44;39.71;99497.44;5045522;28;20116;-66
2022/06/01 11:01:55;;;;;;;5.05;2.75;;;;;;;19.32;40.12;99501.22;5045595;28;20037;-66
2022/06/01 11:04:32;;;;;;;4.47;2.50;;;;;;;18.93;40.39;99498.47;5042535;28;20120;-64
2022/06/01 11:07:22;;;;;;;7.10;2.80;;;;;;;19.33;40.26;99497.56;5044691;28;20037;-65
2022/06/01 11:10:10;;;;;;;6.60;3.08;;;;;;;19.42;39.73;99496.72;5045354;28;20086;-64
2022/06/01 11:12:50;;;;;;;3.60;2.45;;;;;;;19.65;38.61;99497.31;5045361;28;20033;-65
2022/06/01 11:15:39;;;;;;;9.00;2.90;;;;;;;19.85;37.79;99491.97;5045176;28;20037;-65
2022/06/01 11:18:19;;;;;;;7.13;3.08;;;;;;;20.02;37.16;99487.75;5044404;28;20044;-65
2022/06/01 11:21:06;;;;;;;3.85;2.45;;;;;;;19.76;37.64;99484.78;5044745;28;20040;-65
2022/06/01 11:23:50;;;;;;;8.20;2.40;;;;;;;19.39;37.52;99483.63;5044961;28;20111;-65
2022/06/01 11:26:26;;;;;;;7.97;2.72;;;;;;;19.28;39.31;99489.94;5043422;28;20051;-67
2022/06/01 11:29:16;;;;;;;7.10;2.40;;;;;;;19.73;38.40;99484.09;5045069;28;20094;-67
2022/06/01 11:31:44;;;;;;;7.43;3.53;;;;;;;19.95;38.59;99487.44;5045404;28;20041;-64
2022/06/01 11:34:19;;;;;;;4.65;2.38;;;;;;;20.10;38.33;99483.34;5042860;28;20582;-65
2022/06/01 11:37:05;;;;;;;10.43;2.60;;;;;;;20.03;38.14;99476.03;5044137;28;20138;-65
2022/06/01 11:39:35;;;;;;;6.10;2.17;;;;;;;19.89;38.29;99486.22;5044756;28;20033;-67
2022/06/01 11:42:12;;;;;;;4.85;2.60;;;;;;;19.72;39.16;99486.91;5044723;28;20049;-67
2022/06/01 11:44:40;;;;;;;6.63;3.72;;;;;;;19.37;39.21;99490.97;5044692;28;20042;-65
2022/06/01 11:47:18;;;;;;;12.45;3.33;;;;;;;19.04;40.13;99487.66;5044273;28;20037;-66
2022/06/01 11:50:00;;;;;;;12.70;3.47;;;;;;;18.81;40.28;99494.22;5044927;28;20036;-66
2022/06/01 11:52:32;;;;;;;8.20;2.85;;;;;;;18.75;40.00;99497.38;5044305;28;20083;-64
2022/06/01 11:55:16;;;;;;;6.60;3.15;;;;;;;18.93;39.73;99493.13;5044685;28;20077;-65
2022/06/01 11:57:44;;;;;;;6.28;2.60;;;;;;;18.87;40.03;99493.66;5043654;28;20511;-65
2022/06/01 12:00:19;;;;;;;7.30;2.35;;;;;;;18.72;40.65;99500.31;5044212;28;20036;-64
2022/06/01 12:02:45;;;;;;;;;;;;;;;18.57;41.01;99497.16;5044732;28;20548;-63
2022/06/01 12:05:23;;;;;;;3.28;1.95;;;;;;;18.37;41.33;99496.22;5044424;28;19996;-65
2022/06/01 12:07:57;;;;;;;8.15;4.03;;;;;;;18.19;42.95;99506.66;5043746;28;20039;-64
2022/06/01 12:10:32;;;;;;;6.15;2.65;;;;;;;18.02;42.91;99502.75;5044234;28;20048;-65
2022/06/01 12:13:21;;;;;;;7.33;2.77;;;;;;;17.98;43.83;99507.50;5043818;28;20056;-65
2022/06/01 12:16:22;;;;;;;9.93;2.72;;;;;;;18.22;43.16;99498.41;5043524;28;20511;-63
2022/06/01 12:19:13;;;;;;;6.50;2.40;;;;;;;18.26;42.04;99501.63;5043757;28;20585;-66
2022/06/01 12:21:42;;;;;;;5.95;2.28;;;;;;;18.05;42.43;99505.16;5043587;28;20713;-65